createdAt,value
2023-04-07T00:00:40.153Z,507.00
2023-04-07T00:01:40.204Z,508.00
2023-04-07T00:02:41.371Z,510.00
2023-04-07T00:03:40.347Z,512.00
2023-04-07T00:04:40.218Z,514.00
2023-04-07T00:05:40.198Z,514.00
2023-04-07T00:06:40.170Z,516.00
2023-04-07T00:07:52.228Z,511.00
2023-04-07T00:08:41.152Z,511.00
2023-04-07T00:09:40.160Z,508.00
2023-04-07T00:10:40.149Z,505.00
2023-04-07T00:11:40.146Z,505.00
2023-04-07T00:12:40.121Z,505.00
2023-04-07T00:13:40.144Z,509.00
2023-04-07T00:14:40.121Z,513.00
2023-04-07T00:15:40.141Z,513.00
2023-04-07T00:16:40.111Z,515.00
2023-04-07T00:17:40.185Z,514.00
2023-04-07T00:18:40.099Z,514.00
2023-04-07T00:19:40.099Z,514.00
2023-04-07T00:20:40.076Z,517.00
2023-04-07T00:21:40.087Z,519.00
2023-04-07T00:22:40.077Z,517.00
2023-04-07T00:23:40.056Z,518.00
2023-04-07T00:24:40.061Z,519.00
2023-04-07T00:25:40.097Z,516.00
2023-04-07T00:26:40.141Z,515.00
2023-04-07T00:27:40.137Z,512.00
2023-04-07T00:28:40.167Z,512.00
2023-04-07T00:29:40.182Z,513.00
2023-04-07T00:30:40.211Z,514.00
2023-04-07T00:31:40.356Z,516.00
2023-04-07T00:32:40.320Z,516.00
2023-04-07T00:33:40.283Z,514.00
2023-04-07T00:34:40.317Z,514.00
2023-04-07T00:35:40.349Z,513.00
2023-04-07T00:36:40.350Z,513.00
2023-04-07T00:37:40.379Z,514.00
2023-04-07T00:38:40.421Z,514.00
2023-04-07T00:39:40.446Z,512.00
2023-04-07T00:40:40.483Z,512.00
2023-04-07T00:41:40.492Z,513.00
2023-04-07T00:42:40.539Z,513.00
2023-04-07T00:43:40.542Z,514.00
2023-04-07T00:44:40.551Z,515.00
2023-04-07T00:45:40.619Z,515.00
2023-04-07T00:46:40.702Z,514.00
2023-04-07T00:47:40.666Z,513.00
2023-04-07T00:48:40.671Z,512.00
2023-04-07T00:49:40.706Z,514.00
2023-04-07T00:50:40.724Z,515.00
2023-04-07T00:51:40.765Z,516.00
2023-04-07T00:52:40.784Z,518.00
2023-04-07T00:53:40.795Z,519.00
2023-04-07T00:54:40.843Z,520.00
2023-04-07T00:55:40.859Z,520.00
2023-04-07T00:56:42.490Z,518.00
2023-04-07T00:57:40.869Z,518.00
2023-04-07T00:58:40.889Z,516.00
2023-04-07T00:59:40.858Z,513.00
2023-04-07T01:00:40.864Z,512.00
2023-04-07T01:01:40.922Z,508.00
2023-04-07T01:02:41.043Z,509.00
2023-04-07T01:03:41.170Z,512.00
2023-04-07T01:04:41.061Z,510.00
2023-04-07T01:05:40.833Z,513.00
2023-04-07T01:06:40.811Z,514.00
2023-04-07T01:07:40.815Z,515.00
2023-04-07T01:08:40.811Z,514.00
2023-04-07T01:09:40.812Z,514.00
2023-04-07T01:10:40.813Z,515.00
2023-04-07T01:11:40.775Z,516.00
2023-04-07T01:12:40.767Z,516.00
2023-04-07T01:13:40.778Z,515.00
2023-04-07T01:14:40.775Z,515.00
2023-04-07T01:15:40.769Z,511.00
2023-04-07T01:16:40.826Z,510.00
2023-04-07T01:17:40.750Z,508.00
2023-04-07T01:18:40.728Z,509.00
2023-04-07T01:19:40.749Z,508.00
2023-04-07T01:20:40.712Z,508.00
2023-04-07T01:21:40.699Z,509.00
2023-04-07T01:22:40.707Z,509.00
2023-04-07T01:23:40.840Z,508.00
2023-04-07T01:24:40.704Z,507.00
2023-04-07T01:25:40.703Z,507.00
2023-04-07T01:26:40.688Z,506.00
2023-04-07T01:27:40.672Z,506.00
2023-04-07T01:28:40.676Z,504.00
2023-04-07T01:29:40.660Z,504.00
2023-04-07T01:30:40.646Z,504.00
2023-04-07T01:31:40.660Z,502.00
2023-04-07T01:32:40.654Z,503.00
2023-04-07T01:33:40.641Z,502.00
2023-04-07T01:34:40.657Z,502.00
2023-04-07T01:35:40.612Z,503.00
2023-04-07T01:36:40.684Z,507.00
2023-04-07T01:37:40.618Z,509.00
2023-04-07T01:38:40.621Z,508.00
2023-04-07T01:39:40.612Z,509.00
2023-04-07T01:40:40.589Z,509.00
2023-04-07T01:41:40.606Z,508.00
2023-04-07T01:42:40.576Z,506.00
2023-04-07T01:43:41.665Z,504.00
2023-04-07T01:44:40.570Z,504.00
2023-04-07T01:45:40.561Z,508.00
2023-04-07T01:46:40.613Z,513.00
2023-04-07T01:47:40.558Z,515.00
2023-04-07T01:48:40.585Z,514.00
2023-04-07T01:49:40.508Z,515.00
2023-04-07T01:50:40.515Z,514.00
2023-04-07T01:51:40.519Z,514.00
2023-04-07T01:52:40.521Z,514.00
2023-04-07T01:53:40.521Z,512.00
2023-04-07T01:54:40.493Z,511.00
2023-04-07T01:55:40.491Z,510.00
2023-04-07T01:56:40.507Z,507.00
2023-04-07T01:57:40.463Z,508.00
2023-04-07T01:58:40.467Z,506.00
2023-04-07T01:59:40.482Z,508.00
2023-04-07T02:00:40.455Z,509.00
2023-04-07T02:01:40.932Z,510.00
2023-04-07T02:02:40.711Z,509.00
2023-04-07T02:03:40.678Z,508.00
2023-04-07T02:04:40.604Z,508.00
2023-04-07T02:05:40.617Z,508.00
2023-04-07T02:06:40.617Z,506.00
2023-04-07T02:07:40.662Z,507.00
2023-04-07T02:08:40.669Z,506.00
2023-04-07T02:09:40.691Z,504.00
2023-04-07T02:10:40.739Z,504.00
2023-04-07T02:11:40.758Z,504.00
2023-04-07T02:12:40.800Z,505.00
2023-04-07T02:13:40.832Z,504.00
2023-04-07T02:14:40.836Z,503.00
2023-04-07T02:15:40.871Z,504.00
2023-04-07T02:16:40.962Z,506.00
2023-04-07T02:17:40.956Z,508.00
2023-04-07T02:18:40.971Z,510.00
2023-04-07T02:19:40.980Z,512.00
2023-04-07T02:20:41.017Z,509.00
2023-04-07T02:21:41.034Z,508.00
2023-04-07T02:22:41.067Z,510.00
2023-04-07T02:23:41.120Z,512.00
2023-04-07T02:24:41.126Z,512.00
2023-04-07T02:25:41.171Z,508.00
2023-04-07T02:26:41.190Z,508.00
2023-04-07T02:27:41.201Z,507.00
2023-04-07T02:28:41.236Z,505.00
2023-04-07T02:29:41.313Z,505.00
2023-04-07T02:30:41.309Z,502.00
2023-04-07T02:31:41.366Z,503.00
2023-04-07T02:32:41.470Z,503.00
2023-04-07T02:33:41.422Z,502.00
2023-04-07T02:34:41.412Z,500.00
2023-04-07T02:35:41.449Z,501.00
2023-04-07T02:36:41.549Z,501.00
2023-04-07T02:37:41.523Z,499.00
2023-04-07T02:38:41.546Z,501.00
2023-04-07T02:39:41.563Z,498.00
2023-04-07T02:40:41.596Z,498.00
2023-04-07T02:41:41.615Z,498.00
2023-04-07T02:42:41.674Z,500.00
2023-04-07T02:43:41.671Z,500.00
2023-04-07T02:44:41.698Z,499.00
2023-04-07T02:45:41.760Z,498.00
2023-04-07T02:46:41.761Z,498.00
2023-04-07T02:47:41.812Z,499.00
2023-04-07T02:48:41.834Z,500.00
2023-04-07T02:49:41.839Z,503.00
2023-04-07T02:50:41.883Z,507.00
2023-04-07T02:51:41.906Z,506.00
2023-04-07T02:52:41.952Z,505.00
2023-04-07T02:53:41.968Z,504.00
2023-04-07T02:54:42.010Z,506.00
2023-04-07T02:55:42.026Z,508.00
2023-04-07T02:56:42.060Z,508.00
2023-04-07T02:57:42.090Z,509.00
2023-04-07T02:58:42.126Z,510.00
2023-04-07T02:59:42.155Z,508.00
2023-04-07T03:00:42.231Z,507.00
2023-04-07T03:01:42.309Z,505.00
2023-04-07T03:02:42.364Z,506.00
2023-04-07T03:03:42.403Z,506.00
2023-04-07T03:04:42.328Z,504.00
2023-04-07T03:05:42.339Z,505.00
2023-04-07T03:06:42.380Z,507.00
2023-04-07T03:07:42.388Z,511.00
2023-04-07T03:08:42.421Z,512.00
2023-04-07T03:09:42.467Z,513.00
2023-04-07T03:10:42.500Z,513.00
2023-04-07T03:11:42.492Z,513.00
2023-04-07T03:12:42.522Z,514.00
2023-04-07T03:13:42.555Z,514.00
2023-04-07T03:14:42.580Z,514.00
2023-04-07T03:15:42.634Z,512.00
2023-04-07T03:16:42.684Z,511.00
2023-04-07T03:17:42.719Z,512.00
2023-04-07T03:18:42.703Z,509.00
2023-04-07T03:19:42.735Z,506.00
2023-04-07T03:20:42.738Z,507.00
2023-04-07T03:21:42.782Z,507.00
2023-04-07T03:22:42.808Z,510.00
2023-04-07T03:23:42.817Z,508.00
2023-04-07T03:24:42.838Z,508.00
2023-04-07T03:25:42.898Z,509.00
2023-04-07T03:26:42.907Z,512.00
2023-04-07T03:27:42.934Z,511.00
2023-04-07T03:28:42.946Z,512.00
2023-04-07T03:29:42.986Z,509.00
2023-04-07T03:30:43.027Z,507.00
2023-04-07T03:31:43.062Z,508.00
2023-04-07T03:32:43.089Z,507.00
2023-04-07T03:33:43.078Z,509.00
2023-04-07T03:34:43.100Z,510.00
2023-04-07T03:35:43.165Z,508.00
2023-04-07T03:36:43.146Z,508.00
2023-04-07T03:37:43.171Z,508.00
2023-04-07T03:38:43.197Z,506.00
2023-04-07T03:39:43.227Z,508.00
2023-04-07T03:40:43.238Z,506.00
2023-04-07T03:41:43.270Z,506.00
2023-04-07T03:42:43.280Z,507.00
2023-04-07T03:43:43.304Z,509.00
2023-04-07T03:44:43.332Z,507.00
2023-04-07T03:45:43.361Z,505.00
2023-04-07T03:46:43.434Z,504.00
2023-04-07T03:47:43.420Z,505.00
2023-04-07T03:48:43.418Z,505.00
2023-04-07T03:49:43.442Z,507.00
2023-04-07T03:50:43.468Z,510.00
2023-04-07T03:51:43.509Z,512.00
2023-04-07T03:52:43.511Z,512.00
2023-04-07T03:53:43.536Z,511.00
2023-04-07T03:54:43.574Z,513.00
2023-04-07T03:55:43.601Z,513.00
2023-04-07T03:56:43.606Z,512.00
2023-04-07T03:57:43.659Z,511.00
2023-04-07T03:58:43.697Z,511.00
2023-04-07T03:59:43.710Z,509.00
2023-04-07T04:00:43.727Z,510.00
2023-04-07T04:01:43.779Z,510.00
2023-04-07T04:02:43.915Z,512.00
2023-04-07T04:03:44.045Z,514.00
2023-04-07T04:04:43.865Z,515.00
2023-04-07T04:05:43.827Z,514.00
2023-04-07T04:06:43.876Z,515.00
2023-04-07T04:07:43.880Z,517.00
2023-04-07T04:08:43.918Z,517.00
2023-04-07T04:09:43.934Z,514.00
2023-04-07T04:10:43.971Z,513.00
2023-04-07T04:11:43.976Z,513.00
2023-04-07T04:12:43.993Z,511.00
2023-04-07T04:13:44.031Z,511.00
2023-04-07T04:14:44.050Z,510.00
2023-04-07T04:15:44.097Z,511.00
2023-04-07T04:16:44.101Z,512.00
2023-04-07T04:17:44.149Z,512.00
2023-04-07T04:18:44.148Z,513.00
2023-04-07T04:19:44.156Z,515.00
2023-04-07T04:20:44.185Z,516.00
2023-04-07T04:21:44.218Z,517.00
2023-04-07T04:22:44.224Z,515.00
2023-04-07T04:23:44.253Z,514.00
2023-04-07T04:24:44.291Z,514.00
2023-04-07T04:25:44.328Z,514.00
2023-04-07T04:26:44.355Z,515.00
2023-04-07T04:27:44.378Z,515.00
2023-04-07T04:28:44.390Z,516.00
2023-04-07T04:29:44.428Z,517.00
2023-04-07T04:30:44.483Z,515.00
2023-04-07T04:31:44.630Z,513.00
2023-04-07T04:32:44.619Z,510.00
2023-04-07T04:33:44.565Z,509.00
2023-04-07T04:34:44.592Z,506.00
2023-04-07T04:35:44.616Z,503.00
2023-04-07T04:36:44.683Z,504.00
2023-04-07T04:37:44.656Z,507.00
2023-04-07T04:38:44.684Z,506.00
2023-04-07T04:39:44.701Z,504.00
2023-04-07T04:40:44.738Z,502.00
2023-04-07T04:41:44.775Z,502.00
2023-04-07T04:42:44.800Z,504.00
2023-04-07T04:43:45.276Z,503.00
2023-04-07T04:44:44.855Z,504.00
2023-04-07T04:45:44.856Z,504.00
2023-04-07T04:46:44.931Z,506.00
2023-04-07T04:47:44.965Z,507.00
2023-04-07T04:48:44.929Z,507.00
2023-04-07T04:49:44.957Z,508.00
2023-04-07T04:50:44.997Z,507.00
2023-04-07T04:51:44.999Z,507.00
2023-04-07T04:52:45.038Z,507.00
2023-04-07T04:53:45.055Z,506.00
2023-04-07T04:54:45.082Z,505.00
2023-04-07T04:55:45.105Z,504.00
2023-04-07T04:56:45.117Z,503.00
2023-04-07T04:57:45.172Z,501.00
2023-04-07T04:58:45.153Z,501.00
2023-04-07T04:59:45.191Z,501.00
2023-04-07T05:00:45.278Z,502.00
2023-04-07T05:01:45.275Z,503.00
2023-04-07T05:02:45.532Z,505.00
2023-04-07T05:03:45.341Z,507.00
2023-04-07T05:04:45.542Z,506.00
2023-04-07T05:05:45.349Z,504.00
2023-04-07T05:06:45.350Z,503.00
2023-04-07T05:07:45.393Z,503.00
2023-04-07T05:08:45.400Z,504.00
2023-04-07T05:09:45.406Z,505.00
2023-04-07T05:10:46.689Z,503.00
2023-04-07T05:11:45.493Z,506.00
2023-04-07T05:12:45.505Z,506.00
2023-04-07T05:13:45.513Z,508.00
2023-04-07T05:14:45.560Z,510.00
2023-04-07T05:15:45.606Z,511.00
2023-04-07T05:16:45.586Z,512.00
2023-04-07T05:17:45.685Z,512.00
2023-04-07T05:18:45.653Z,513.00
2023-04-07T05:19:45.654Z,513.00
2023-04-07T05:20:45.702Z,511.00
2023-04-07T05:21:45.704Z,510.00
2023-04-07T05:22:45.703Z,508.00
2023-04-07T05:23:45.719Z,509.00
2023-04-07T05:24:45.790Z,508.00
2023-04-07T05:25:45.751Z,509.00
2023-04-07T05:26:45.790Z,510.00
2023-04-07T05:27:45.820Z,512.00
2023-04-07T05:28:45.798Z,510.00
2023-04-07T05:29:45.821Z,514.00
2023-04-07T05:30:45.848Z,516.00
2023-04-07T05:31:45.927Z,514.00
2023-04-07T05:32:45.952Z,514.00
2023-04-07T05:33:45.906Z,514.00
2023-04-07T05:34:45.924Z,516.00
2023-04-07T05:35:45.990Z,515.00
2023-04-07T05:36:45.993Z,515.00
2023-04-07T05:37:46.019Z,517.00
2023-04-07T05:38:46.046Z,515.00
2023-04-07T05:39:46.080Z,515.00
2023-04-07T05:40:46.093Z,514.00
2023-04-07T05:41:46.112Z,515.00
2023-04-07T05:42:46.157Z,516.00
2023-04-07T05:43:46.175Z,514.00
2023-04-07T05:44:46.194Z,514.00
2023-04-07T05:45:46.280Z,514.00
2023-04-07T05:46:46.235Z,514.00
2023-04-07T05:47:46.313Z,520.00
2023-04-07T05:48:46.306Z,521.00
2023-04-07T05:49:46.306Z,521.00
2023-04-07T05:50:46.368Z,520.00
2023-04-07T05:51:47.466Z,520.00
2023-04-07T05:52:46.397Z,517.00
2023-04-07T05:53:46.429Z,519.00
2023-04-07T05:54:46.437Z,520.00
2023-04-07T05:55:46.494Z,519.00
2023-04-07T05:56:46.508Z,520.00
2023-04-07T05:57:46.526Z,522.00
2023-04-07T05:58:46.522Z,523.00
2023-04-07T05:59:46.534Z,522.00
2023-04-07T06:00:46.565Z,523.00
2023-04-07T06:01:46.720Z,524.00
2023-04-07T06:02:46.776Z,522.00
2023-04-07T06:03:46.824Z,522.00
2023-04-07T06:04:46.675Z,522.00
2023-04-07T06:05:46.711Z,523.00
2023-04-07T06:06:46.740Z,523.00
2023-04-07T06:07:46.734Z,524.00
2023-04-07T06:08:46.790Z,523.00
2023-04-07T06:09:46.788Z,524.00
2023-04-07T06:10:46.825Z,524.00
2023-04-07T06:11:46.855Z,525.00
2023-04-07T06:12:46.876Z,526.00
2023-04-07T06:13:47.184Z,525.00
2023-04-07T06:14:46.907Z,524.00
2023-04-07T06:15:46.929Z,524.00
2023-04-07T06:16:47.029Z,526.00
2023-04-07T06:17:47.060Z,528.00
2023-04-07T06:18:47.039Z,528.00
2023-04-07T06:19:47.034Z,527.00
2023-04-07T06:20:47.048Z,525.00
2023-04-07T06:21:47.069Z,525.00
2023-04-07T06:22:47.094Z,526.00
2023-04-07T06:23:47.471Z,526.00
2023-04-07T06:24:47.153Z,526.00
2023-04-07T06:25:47.187Z,528.00
2023-04-07T06:26:47.209Z,528.00
2023-04-07T06:27:47.215Z,529.00
2023-04-07T06:28:47.236Z,530.00
2023-04-07T06:29:47.267Z,529.00
2023-04-07T06:30:47.378Z,532.00
2023-04-07T06:31:47.321Z,528.00
2023-04-07T06:32:47.351Z,528.00
2023-04-07T06:33:47.612Z,526.00
2023-04-07T06:34:47.400Z,528.00
2023-04-07T06:35:47.428Z,530.00
2023-04-07T06:36:47.503Z,527.00
2023-04-07T06:37:47.458Z,526.00
2023-04-07T06:38:47.485Z,523.00
2023-04-07T06:39:47.506Z,523.00
2023-04-07T06:40:47.519Z,523.00
2023-04-07T06:41:47.536Z,521.00
2023-04-07T06:42:47.569Z,522.00
2023-04-07T06:43:48.208Z,523.00
2023-04-07T06:44:47.602Z,522.00
2023-04-07T06:45:47.695Z,522.00
2023-04-07T06:46:47.668Z,520.00
2023-04-07T06:47:47.691Z,520.00
2023-04-07T06:48:47.694Z,522.00
2023-04-07T06:49:47.718Z,522.00
2023-04-07T06:50:47.744Z,520.00
2023-04-07T06:51:47.768Z,519.00
2023-04-07T06:52:47.790Z,519.00
2023-04-07T06:53:47.952Z,521.00
2023-04-07T06:54:47.822Z,521.00
2023-04-07T06:55:47.834Z,520.00
2023-04-07T06:56:47.853Z,522.00
2023-04-07T06:57:47.891Z,522.00
2023-04-07T06:58:47.908Z,521.00
2023-04-07T06:59:47.930Z,522.00
2023-04-07T07:00:47.963Z,522.00
2023-04-07T07:01:48.051Z,520.00
2023-04-07T07:02:48.136Z,517.00
2023-04-07T07:03:48.371Z,517.00
2023-04-07T07:04:48.061Z,517.00
2023-04-07T07:05:49.508Z,515.00
2023-04-07T07:06:48.097Z,518.00
2023-04-07T07:07:48.115Z,521.00
2023-04-07T07:08:48.129Z,521.00
2023-04-07T07:09:48.173Z,520.00
2023-04-07T07:10:48.228Z,520.00
2023-04-07T07:11:48.196Z,520.00
2023-04-07T07:12:48.232Z,519.00
2023-04-07T07:13:48.340Z,518.00
2023-04-07T07:14:48.268Z,517.00
2023-04-07T07:15:48.354Z,517.00
2023-04-07T07:16:48.313Z,517.00
2023-04-07T07:17:48.425Z,514.00
2023-04-07T07:18:48.367Z,515.00
2023-04-07T07:19:48.359Z,515.00
2023-04-07T07:20:48.381Z,514.00
2023-04-07T07:21:48.400Z,518.00
2023-04-07T07:22:48.426Z,520.00
2023-04-07T07:23:48.862Z,519.00
2023-04-07T07:24:48.427Z,521.00
2023-04-07T07:25:48.451Z,521.00
2023-04-07T07:26:48.449Z,520.00
2023-04-07T07:27:48.474Z,516.00
2023-04-07T07:28:48.495Z,515.00
2023-04-07T07:29:48.478Z,516.00
2023-04-07T07:30:48.580Z,515.00
2023-04-07T07:31:48.488Z,516.00
2023-04-07T07:32:48.536Z,520.00
2023-04-07T07:33:48.620Z,522.00
2023-04-07T07:34:48.489Z,524.00
2023-04-07T07:35:48.508Z,524.00
2023-04-07T07:36:48.473Z,521.00
2023-04-07T07:37:48.485Z,520.00
2023-04-07T07:38:48.498Z,520.00
2023-04-07T07:39:48.474Z,520.00
2023-04-07T07:40:48.501Z,520.00
2023-04-07T07:41:48.490Z,519.00
2023-04-07T07:42:48.494Z,518.00
2023-04-07T07:43:48.780Z,515.00
2023-04-07T07:44:48.810Z,516.00
2023-04-07T07:45:48.576Z,514.00
2023-04-07T07:46:48.707Z,511.00
2023-04-07T07:47:48.778Z,514.00
2023-04-07T07:48:48.677Z,515.00
2023-04-07T07:49:48.750Z,519.00
2023-04-07T07:50:48.818Z,514.00
2023-04-07T07:51:48.846Z,514.00
2023-04-07T07:52:48.919Z,516.00
2023-04-07T07:53:49.216Z,517.00
2023-04-07T07:54:49.040Z,519.00
2023-04-07T07:55:49.112Z,522.00
2023-04-07T07:56:49.171Z,522.00
2023-04-07T07:57:49.227Z,521.00
2023-04-07T07:58:49.304Z,523.00
2023-04-07T07:59:49.336Z,523.00
2023-04-07T08:00:49.425Z,523.00
2023-04-07T08:01:49.472Z,520.00
2023-04-07T08:02:49.612Z,520.00
2023-04-07T08:03:49.987Z,519.00
2023-04-07T08:04:49.645Z,517.00
2023-04-07T08:05:49.655Z,515.00
2023-04-07T08:06:49.697Z,513.00
2023-04-07T08:07:49.756Z,514.00
2023-04-07T08:08:49.782Z,514.00
2023-04-07T08:09:49.835Z,515.00
2023-04-07T08:10:49.876Z,517.00
2023-04-07T08:11:49.913Z,515.00
2023-04-07T08:12:49.924Z,518.00
2023-04-07T08:13:50.205Z,519.00
2023-04-07T08:14:49.995Z,515.00
2023-04-07T08:15:50.037Z,514.00
2023-04-07T08:16:50.051Z,516.00
2023-04-07T08:17:50.086Z,515.00
2023-04-07T08:18:50.199Z,514.00
2023-04-07T08:19:50.098Z,510.00
2023-04-07T08:20:50.119Z,510.00
2023-04-07T08:21:50.118Z,512.00
2023-04-07T08:22:50.121Z,510.00
2023-04-07T08:23:50.447Z,508.00
2023-04-07T08:24:50.311Z,508.00
2023-04-07T08:25:50.178Z,507.00
2023-04-07T08:26:50.204Z,508.00
2023-04-07T08:27:50.247Z,508.00
2023-04-07T08:28:50.279Z,509.00
2023-04-07T08:29:50.316Z,508.00
2023-04-07T08:30:50.330Z,507.00
2023-04-07T08:31:50.386Z,507.00
2023-04-07T08:32:50.381Z,508.00
2023-04-07T08:33:50.613Z,505.00
2023-04-07T08:34:50.446Z,504.00
2023-04-07T08:35:50.522Z,504.00
2023-04-07T08:36:50.535Z,504.00
2023-04-07T08:37:50.579Z,502.00
2023-04-07T08:38:50.576Z,502.00
2023-04-07T08:39:50.629Z,501.00
2023-04-07T08:40:50.657Z,500.00
2023-04-07T08:41:50.704Z,500.00
2023-04-07T08:42:50.761Z,499.00
2023-04-07T08:43:50.811Z,501.00
2023-04-07T08:44:50.831Z,501.00
2023-04-07T08:45:53.103Z,503.00
2023-04-07T08:46:50.856Z,504.00
2023-04-07T08:47:50.915Z,504.00
2023-04-07T08:48:50.823Z,502.00
2023-04-07T08:49:50.799Z,502.00
2023-04-07T08:50:50.794Z,502.00
2023-04-07T08:51:50.800Z,499.00
2023-04-07T08:52:50.784Z,496.00
2023-04-07T08:53:50.775Z,495.00
2023-04-07T08:54:50.774Z,496.00
2023-04-07T08:55:50.775Z,499.00
2023-04-07T08:56:50.787Z,502.00
2023-04-07T08:57:50.745Z,501.00
2023-04-07T08:58:50.739Z,501.00
2023-04-07T08:59:50.739Z,501.00
2023-04-07T09:00:50.790Z,499.00
2023-04-07T09:01:50.753Z,500.00
2023-04-07T09:02:50.798Z,497.00
2023-04-07T09:03:51.058Z,498.00
2023-04-07T09:04:50.695Z,498.00
2023-04-07T09:05:50.694Z,497.00
2023-04-07T09:06:50.688Z,497.00
2023-04-07T09:07:50.694Z,495.00
2023-04-07T09:08:50.689Z,495.00
2023-04-07T09:09:50.669Z,495.00
2023-04-07T09:10:50.675Z,495.00
2023-04-07T09:11:50.661Z,495.00
2023-04-07T09:12:50.668Z,496.00
2023-04-07T09:13:50.661Z,494.00
2023-04-07T09:14:50.648Z,493.00
2023-04-07T09:15:50.630Z,493.00
2023-04-07T09:16:50.681Z,494.00
2023-04-07T09:17:50.634Z,492.00
2023-04-07T09:18:50.626Z,491.00
2023-04-07T09:19:50.615Z,492.00
2023-04-07T09:20:50.623Z,491.00
2023-04-07T09:21:50.586Z,490.00
2023-04-07T09:22:50.615Z,489.00
2023-04-07T09:23:50.734Z,490.00
2023-04-07T09:24:50.581Z,491.00
2023-04-07T09:25:50.574Z,492.00
2023-04-07T09:26:50.581Z,493.00
2023-04-07T09:27:50.625Z,492.00
2023-04-07T09:28:50.706Z,493.00
2023-04-07T09:29:50.743Z,492.00
2023-04-07T09:30:50.809Z,488.00
2023-04-07T09:31:50.891Z,487.00
2023-04-07T09:32:50.970Z,486.00
2023-04-07T09:33:50.966Z,487.00
2023-04-07T09:34:51.056Z,488.00
2023-04-07T09:35:51.158Z,484.00
2023-04-07T09:36:51.178Z,486.00
2023-04-07T09:37:51.256Z,485.00
2023-04-07T09:38:51.317Z,485.00
2023-04-07T09:39:51.358Z,485.00
2023-04-07T09:40:51.413Z,486.00
2023-04-07T09:41:51.481Z,486.00
2023-04-07T09:42:51.554Z,484.00
2023-04-07T09:43:51.613Z,481.00
2023-04-07T09:44:51.673Z,480.00
2023-04-07T09:45:51.788Z,480.00
2023-04-07T09:46:51.817Z,481.00
2023-04-07T09:47:52.002Z,480.00
2023-04-07T09:48:51.935Z,482.00
2023-04-07T09:49:52.006Z,482.00
2023-04-07T09:50:52.127Z,484.00
2023-04-07T09:51:52.136Z,485.00
2023-04-07T09:52:52.203Z,485.00
2023-04-07T09:53:52.326Z,485.00
2023-04-07T09:54:52.303Z,486.00
2023-04-07T09:55:52.391Z,488.00
2023-04-07T09:56:52.435Z,489.00
2023-04-07T09:57:52.508Z,488.00
2023-04-07T09:58:52.561Z,487.00
2023-04-07T09:59:52.605Z,487.00
2023-04-07T10:00:52.670Z,488.00
2023-04-07T10:01:54.395Z,489.00
2023-04-07T10:02:52.895Z,488.00
2023-04-07T10:03:52.719Z,487.00
2023-04-07T10:04:52.669Z,486.00
2023-04-07T10:05:52.653Z,486.00
2023-04-07T10:06:52.649Z,485.00
2023-04-07T10:07:52.661Z,482.00
2023-04-07T10:08:52.637Z,481.00
2023-04-07T10:09:52.632Z,482.00
2023-04-07T10:10:52.643Z,483.00
2023-04-07T10:11:52.624Z,481.00
2023-04-07T10:12:52.643Z,485.00
2023-04-07T10:13:52.622Z,484.00
2023-04-07T10:14:52.626Z,484.00
2023-04-07T10:15:52.621Z,486.00
2023-04-07T10:16:52.618Z,485.00
2023-04-07T10:17:52.609Z,487.00
2023-04-07T10:18:52.593Z,490.00
2023-04-07T10:19:52.582Z,491.00
2023-04-07T10:20:52.576Z,490.00
2023-04-07T10:21:52.573Z,489.00
2023-04-07T10:22:52.591Z,490.00
2023-04-07T10:23:52.559Z,491.00
2023-04-07T10:24:52.565Z,490.00
2023-04-07T10:25:52.672Z,488.00
2023-04-07T10:26:52.549Z,487.00
2023-04-07T10:27:52.535Z,485.00
2023-04-07T10:28:52.532Z,486.00
2023-04-07T10:29:52.547Z,486.00
2023-04-07T10:30:52.560Z,484.00
2023-04-07T10:31:52.483Z,483.00
2023-04-07T10:32:52.551Z,482.00
2023-04-07T10:33:52.868Z,483.00
2023-04-07T10:34:52.491Z,483.00
2023-04-07T10:35:52.502Z,485.00
2023-04-07T10:36:52.465Z,484.00
2023-04-07T10:37:52.527Z,486.00
2023-04-07T10:38:52.463Z,485.00
2023-04-07T10:39:52.451Z,486.00
2023-04-07T10:40:52.442Z,484.00
2023-04-07T10:41:52.420Z,483.00
2023-04-07T10:42:52.413Z,483.00
2023-04-07T10:43:52.416Z,485.00
2023-04-07T10:44:52.434Z,486.00
2023-04-07T10:45:52.478Z,484.00
2023-04-07T10:46:52.410Z,482.00
2023-04-07T10:47:52.501Z,482.00
2023-04-07T10:48:52.380Z,480.00
2023-04-07T10:49:52.356Z,482.00
2023-04-07T10:50:52.379Z,484.00
2023-04-07T10:51:52.375Z,488.00
2023-04-07T10:52:52.365Z,488.00
2023-04-07T10:53:52.468Z,488.00
2023-04-07T10:54:52.321Z,486.00
2023-04-07T10:55:52.317Z,485.00
2023-04-07T10:56:52.331Z,488.00
2023-04-07T10:57:52.320Z,490.00
2023-04-07T10:58:52.314Z,490.00
2023-04-07T10:59:52.298Z,490.00
2023-04-07T11:00:52.309Z,489.00
2023-04-07T11:01:52.340Z,487.00
2023-04-07T11:02:52.386Z,485.00
2023-04-07T11:03:52.475Z,482.00
2023-04-07T11:04:52.319Z,480.00
2023-04-07T11:05:52.264Z,480.00
2023-04-07T11:06:52.311Z,479.00
2023-04-07T11:07:52.368Z,482.00
2023-04-07T11:08:52.428Z,483.00
2023-04-07T11:09:52.446Z,485.00
2023-04-07T11:10:52.501Z,484.00
2023-04-07T11:11:52.547Z,485.00
2023-04-07T11:12:52.581Z,490.00
2023-04-07T11:13:52.684Z,491.00
2023-04-07T11:14:52.715Z,489.00
2023-04-07T11:15:52.823Z,488.00
2023-04-07T11:16:52.821Z,488.00
2023-04-07T11:17:52.915Z,487.00
2023-04-07T11:18:52.962Z,487.00
2023-04-07T11:19:53.012Z,483.00
2023-04-07T11:20:53.085Z,483.00
2023-04-07T11:21:53.132Z,483.00
2023-04-07T11:22:53.229Z,482.00
2023-04-07T11:23:53.263Z,481.00
2023-04-07T11:24:53.300Z,482.00
2023-04-07T11:25:53.384Z,483.00
2023-04-07T11:26:53.429Z,484.00
2023-04-07T11:27:53.492Z,482.00
2023-04-07T11:28:53.558Z,481.00
2023-04-07T11:29:53.610Z,481.00
2023-04-07T11:30:53.695Z,480.00
2023-04-07T11:31:53.796Z,479.00
2023-04-07T11:32:53.797Z,481.00
2023-04-07T11:33:53.873Z,482.00
2023-04-07T11:34:53.908Z,481.00
2023-04-07T11:35:54.014Z,480.00
2023-04-07T11:36:54.022Z,478.00
2023-04-07T11:37:54.101Z,476.00
2023-04-07T11:38:54.163Z,475.00
2023-04-07T11:39:54.236Z,478.00
2023-04-07T11:40:54.282Z,478.00
2023-04-07T11:41:54.356Z,482.00
2023-04-07T11:42:54.405Z,482.00
2023-04-07T11:43:54.466Z,482.00
2023-04-07T11:44:54.506Z,482.00
2023-04-07T11:45:54.629Z,482.00
2023-04-07T11:46:54.718Z,483.00
2023-04-07T11:47:54.712Z,483.00
2023-04-07T11:48:54.718Z,483.00
2023-04-07T11:49:54.755Z,483.00
2023-04-07T11:50:54.796Z,483.00
2023-04-07T11:51:54.823Z,484.00
2023-04-07T11:52:54.905Z,486.00
2023-04-07T11:53:54.892Z,487.00
2023-04-07T11:54:54.911Z,484.00
2023-04-07T11:55:54.964Z,484.00
2023-04-07T11:56:54.964Z,485.00
2023-04-07T11:57:54.980Z,485.00
2023-04-07T11:58:55.023Z,485.00
2023-04-07T11:59:55.065Z,483.00
2023-04-07T12:00:55.121Z,484.00
2023-04-07T12:01:57.708Z,483.00
2023-04-07T12:02:55.316Z,482.00
2023-04-07T12:03:55.231Z,483.00
2023-04-07T12:04:55.205Z,484.00
2023-04-07T12:05:55.124Z,485.00
2023-04-07T12:06:55.127Z,485.00
2023-04-07T12:07:55.102Z,483.00
2023-04-07T12:08:55.100Z,483.00
2023-04-07T12:09:55.076Z,485.00
2023-04-07T12:10:55.084Z,487.00
2023-04-07T12:11:55.063Z,487.00
2023-04-07T12:12:55.532Z,488.00
2023-04-07T12:13:55.063Z,489.00
2023-04-07T12:14:55.060Z,489.00
2023-04-07T12:15:55.074Z,487.00
2023-04-07T12:16:55.150Z,488.00
2023-04-07T12:17:55.076Z,491.00
2023-04-07T12:18:55.036Z,492.00
2023-04-07T12:19:55.032Z,491.00
2023-04-07T12:20:55.035Z,491.00
2023-04-07T12:21:55.022Z,492.00
2023-04-07T12:22:55.004Z,491.00
2023-04-07T12:23:55.002Z,490.00
2023-04-07T12:24:54.997Z,489.00
2023-04-07T12:25:54.996Z,487.00
2023-04-07T12:26:54.978Z,488.00
2023-04-07T12:27:54.977Z,489.00
2023-04-07T12:28:55.012Z,490.00